Time;durP1;ratioP1;P1;durP2;ratioP2;P2;SDS_P1;SDS_P2;PMS_P1;PMS_P2;Temp;Humidity;BMP_temperature;BMP_pressure;BME280_temperature;BME280_humidity;BME280_pressure;Samples;Min_cycle;Max_cycle;Signal;HPM_P1;HPM_P2
2022/05/10 00:02:06;;;;;;;14.75;6.00;;;14.30;99.90;;;;;;5087463;28;20478;-82
2022/05/10 00:04:35;;;;;;;15.48;6.10;;;14.20;99.90;;;;;;5092423;28;20044;-82
2022/05/10 00:07:01;;;;;;;13.02;6.03;;;14.10;99.90;;;;;;5106084;28;20414;-82
2022/05/10 00:09:29;;;;;;;12.50;5.38;;;14.10;99.90;;;;;;5083412;28;20040;-82
2022/05/10 00:11:59;;;;;;;18.02;7.35;;;14.10;99.90;;;;;;5105689;28;20102;-82
2022/05/10 00:14:27;;;;;;;15.35;5.90;;;14.10;99.90;;;;;;5085664;28;20139;-82
2022/05/10 00:16:53;;;;;;;12.88;6.28;;;14.10;99.90;;;;;;5089974;28;20075;-82
2022/05/10 00:19:22;;;;;;;11.27;5.47;;;14.00;99.90;;;;;;5085568;28;20050;-82
2022/05/10 00:21:48;;;;;;;13.70;5.97;;;14.00;99.90;;;;;;5089312;28;20102;-82
2022/05/10 00:24:14;;;;;;;16.27;6.50;;;14.00;99.90;;;;;;5088194;28;20126;-82
2022/05/10 00:56:06;;;;;;;;;;;;;;;;;;;;;
2022/05/10 01:17:07;;;;;;;13.05;6.45;;;13.70;99.90;;;;;;4796553;29;20103;-82
2022/05/10 01:24:00;;;;;;;9.93;5.85;;;13.90;99.90;;;;;;4843971;29;20521;-82
2022/05/10 01:26:28;;;;;;;14.75;6.03;;;13.90;99.90;;;;;;4922863;28;20065;-82
2022/05/10 01:29:04;;;;;;;13.27;6.00;;;13.90;99.90;;;;;;4975399;28;20058;-82
2022/05/10 01:31:44;;;;;;;13.20;6.53;;;14.00;99.90;;;;;;4964586;28;20059;-82
2022/05/10 01:34:16;;;;;;;15.38;5.75;;;13.90;99.90;;;;;;4948735;28;20085;-83
2022/05/10 01:36:52;;;;;;;11.90;5.70;;;14.00;99.90;;;;;;4981422;28;20109;-81
2022/05/10 01:39:33;;;;;;;10.95;5.20;;;14.00;99.90;;;;;;4984990;28;20052;-82
2022/05/10 01:42:10;;;;;;;15.70;5.47;;;14.00;99.90;;;;;;4986111;28;20042;-81
2022/05/10 01:44:47;;;;;;;13.48;6.05;;;14.00;99.90;;;;;;4997469;28;20047;-81
2022/05/10 01:47:34;;;;;;;13.75;5.88;;;14.00;99.90;;;;;;4981762;28;20045;-82
2022/05/10 01:50:19;;;;;;;11.73;6.05;;;14.00;99.90;;;;;;5002478;28;20049;-82
2022/05/10 01:53:01;;;;;;;15.48;5.60;;;14.00;99.90;;;;;;5028415;28;20060;-81
2022/05/10 01:55:58;;;;;;;10.38;5.05;;;14.00;99.90;;;;;;5023654;28;20122;-81
2022/05/10 01:58:33;;;;;;;16.55;6.32;;;14.00;99.90;;;;;;4990064;28;20050;-80
2022/05/10 02:01:24;;;;;;;10.60;5.75;;;14.00;99.90;;;;;;5034339;28;20104;-81
2022/05/10 02:04:14;;;;;;;14.88;6.05;;;14.00;99.90;;;;;;5027957;28;20048;-81
2022/05/10 02:06:45;;;;;;;9.98;5.78;;;14.00;99.90;;;;;;5020576;28;20080;-82
2022/05/10 02:37:17;;;;;;;14.15;5.18;;;13.20;99.90;;;;;;4998042;28;20054;-81
2022/05/10 02:40:31;;;;;;;17.25;5.65;;;13.30;99.90;;;;;;4926065;28;20413;-81
2022/05/10 02:43:03;;;;;;;11.80;5.72;;;13.60;99.90;;;;;;4950742;28;20094;-82
2022/05/10 02:49:17;;;;;;;16.23;6.13;;;14.00;99.90;;;;;;4893020;29;20404;-82
2022/05/10 02:52:52;;;;;;;12.13;5.43;;;14.10;99.90;;;;;;4984049;28;20053;-81
2022/05/10 02:55:45;;;;;;;13.50;6.25;;;13.50;99.90;;;;;;4959622;28;20414;-80
2022/05/10 03:03:11;;;;;;;14.43;5.22;;;14.30;99.90;;;;;;4997632;28;20561;-81
2022/05/10 03:06:20;;;;;;;;;;;;;;;;;;;;;
2022/05/10 03:09:09;;;;;;;12.90;5.60;;;14.30;99.90;;;;;;5015486;28;20107;-81
2022/05/10 03:12:14;;;;;;;12.32;5.65;;;14.30;99.90;;;;;;5065190;28;20067;-80
2022/05/10 03:15:08;;;;;;;13.70;5.82;;;15.10;99.90;;;;;;5069389;28;20119;-81
2022/05/10 03:17:49;;;;;;;17.90;6.50;;;14.40;99.90;;;;;;5051848;28;20113;-81
2022/05/10 03:21:07;;;;;;;12.70;5.57;;;14.50;99.90;;;;;;5061622;28;20033;-81
2022/05/10 03:24:29;;;;;;;12.30;5.18;;;14.50;99.90;;;;;;5064696;28;20048;-81
2022/05/10 03:27:37;;;;;;;12.25;5.60;;;14.50;99.90;;;;;;5030611;28;20057;-81
2022/05/10 03:30:48;;;;;;;13.20;5.82;;;15.00;99.90;;;;;;5039656;28;20049;-82
2022/05/10 03:37:17;;;;;;;11.32;5.47;;;14.80;99.90;;;;;;5041945;28;20420;-82
2022/05/10 03:39:46;;;;;;;11.63;5.80;;;14.60;99.90;;;;;;5069922;28;20080;-82
2022/05/10 03:42:25;;;;;;;12.18;6.00;;;14.60;99.90;;;;;;5036333;28;20565;-82
2022/05/10 03:44:56;;;;;;;15.23;6.00;;;14.60;99.90;;;;;;5032562;28;20052;-83
2022/05/10 03:47:34;;;;;;;;;;;14.70;99.90;;;;;;5045124;28;20041;-81
2022/05/10 03:50:12;;;;;;;13.00;6.07;;;14.60;99.90;;;;;;5039098;28;20279;-81
2022/05/10 03:52:53;;;;;;;13.35;6.72;;;14.60;99.90;;;;;;5051550;28;20058;-80
2022/05/10 03:59:21;;;;;;;16.38;6.93;;;14.60;99.90;;;;;;5023208;28;20076;-82
2022/05/10 04:02:52;;;;;;;;;;;;;;;;;;;;;
2022/05/10 04:05:40;;;;;;;11.20;6.25;;;14.70;99.90;;;;;;4987583;28;20580;-81
2022/05/10 04:16:06;;;;;;;15.23;6.30;;;14.70;99.90;;;;;;4832462;29;20069;-82
2022/05/10 04:19:29;;;;;;;16.02;6.97;;;14.70;99.90;;;;;;4803646;29;20062;-82
2022/05/10 04:22:25;;;;;;;15.23;5.82;;;14.80;99.90;;;;;;4989036;23;20053;-82
2022/05/10 04:29:00;;;;;;;13.95;6.78;;;14.80;99.90;;;;;;5033719;28;20143;-81
2022/05/10 04:32:06;;;;;;;;;;;;;;;;;;;;;
2022/05/10 04:39:19;;;;;;;11.40;5.72;;;15.00;99.90;;;;;;4958265;28;20134;-81
2022/05/10 04:42:19;;;;;;;13.50;6.15;;;14.90;99.90;;;;;;4926810;29;20057;-81
2022/05/10 04:44:55;;;;;;;12.68;6.82;;;15.00;99.90;;;;;;4931104;28;20054;-82
2022/05/10 04:47:23;;;;;;;16.05;6.55;;;15.00;99.90;;;;;;4951699;28;20062;-81
2022/05/10 04:50:09;;;;;;;12.68;6.35;;;14.90;99.90;;;;;;4941695;29;20035;-81
2022/05/10 04:52:39;;;;;;;17.40;7.53;;;15.80;99.90;;;;;;4966143;28;20053;-81
2022/05/10 04:55:08;;;;;;;13.77;5.97;;;15.10;99.90;;;;;;5008854;28;20378;-81
2022/05/10 04:57:38;;;;;;;14.65;6.68;;;15.10;99.80;;;;;;5010066;28;20057;-81
2022/05/10 05:00:13;;;;;;;15.05;7.00;;;15.30;99.70;;;;;;5018528;28;20049;-80
2022/05/10 05:02:54;;;;;;;17.38;6.97;;;15.20;99.50;;;;;;5023642;28;20029;-81
2022/05/10 05:05:23;;;;;;;17.20;7.05;;;14.90;99.50;;;;;;5004241;28;20041;-80
2022/05/10 05:07:49;;;;;;;14.07;7.53;;;15.20;99.30;;;;;;5023287;28;20512;-81
2022/05/10 05:10:26;;;;;;;17.20;7.32;;;15.30;99.30;;;;;;5007698;28;20033;-81
2022/05/10 05:12:55;;;;;;;17.05;7.22;;;15.30;99.20;;;;;;5006419;28;20092;-82
2022/05/10 05:15:20;;;;;;;13.20;7.00;;;15.30;99.10;;;;;;5027970;28;20061;-81
2022/05/10 05:17:46;;;;;;;11.80;6.45;;;15.60;99.30;;;;;;5008800;28;20507;-83
2022/05/10 05:20:53;;;;;;;15.57;6.72;;;15.30;99.20;;;;;;5026511;28;20034;-81
2022/05/10 05:23:20;;;;;;;22.65;8.20;;;15.50;99.10;;;;;;5007887;28;20100;-82
2022/05/10 05:25:46;;;;;;;18.60;7.57;;;15.50;99.20;;;;;;5047104;28;20751;-82
2022/05/10 05:28:32;;;;;;;15.48;6.78;;;16.00;99.30;;;;;;5047148;28;20037;-82
2022/05/10 05:31:15;;;;;;;20.58;6.95;;;15.60;98.90;;;;;;5028974;28;20358;-82
2022/05/10 05:33:55;;;;;;;19.60;8.27;;;15.60;98.90;;;;;;5013161;28;20057;-81
2022/05/10 05:36:30;;;;;;;17.95;7.93;;;15.60;99.00;;;;;;5037418;28;20037;-83
2022/05/10 05:39:22;;;;;;;15.18;7.00;;;15.50;98.80;;;;;;5048928;28;20266;-81
2022/05/10 05:42:15;;;;;;;11.55;7.13;;;16.00;98.90;;;;;;5012407;28;20052;-81
2022/05/10 05:44:50;;;;;;;16.35;8.05;;;15.70;98.80;;;;;;5030191;28;20633;-81
2022/05/10 05:47:37;;;;;;;17.00;7.72;;;15.60;98.90;;;;;;5048073;28;20049;-80
2022/05/10 05:50:08;;;;;;;18.10;7.13;;;15.70;98.70;;;;;;5045220;28;20049;-81
2022/05/10 05:52:35;;;;;;;10.37;6.87;;;15.60;98.80;;;;;;5027493;28;20057;-82
2022/05/10 05:55:24;;;;;;;16.45;7.47;;;15.60;98.60;;;;;;5027634;28;20291;-82
2022/05/10 05:57:58;;;;;;;16.85;8.48;;;15.40;98.50;;;;;;5029514;28;20404;-81
2022/05/10 06:00:38;;;;;;;18.77;7.97;;;15.70;98.60;;;;;;5016751;28;20058;-80
2022/05/10 06:03:40;;;;;;;;;;;;;;;;;;;;;
2022/05/10 06:06:24;;;;;;;13.75;7.78;;;15.80;98.30;;;;;;5023151;28;20087;-79
2022/05/10 06:08:50;;;;;;;14.23;7.28;;;16.00;98.20;;;;;;5029711;28;20514;-81
2022/05/10 06:11:15;;;;;;;13.60;6.28;;;15.90;98.10;;;;;;5019999;28;20029;-75
2022/05/10 06:13:41;;;;;;;21.38;7.95;;;15.90;98.10;;;;;;5008986;28;20504;-74
2022/05/10 06:16:07;;;;;;;13.50;6.93;;;16.00;97.90;;;;;;5033984;28;20037;-74
2022/05/10 06:18:33;;;;;;;19.10;7.10;;;16.10;97.70;;;;;;5008333;28;20378;-75
2022/05/10 06:20:59;;;;;;;14.27;7.30;;;16.10;97.90;;;;;;5016147;28;20050;-75
2022/05/10 06:23:25;;;;;;;14.50;6.80;;;16.20;97.50;;;;;;5036985;28;20049;-75
2022/05/10 06:25:53;;;;;;;15.70;7.20;;;16.30;97.30;;;;;;5014252;28;20037;-74
2022/05/10 06:28:22;;;;;;;13.93;7.43;;;16.30;97.20;;;;;;5021811;28;20049;-75
2022/05/10 06:30:47;;;;;;;16.45;6.50;;;16.40;97.10;;;;;;4997956;28;20050;-75
2022/05/10 06:33:13;;;;;;;17.42;7.05;;;16.50;97.00;;;;;;5024344;28;20397;-75
2022/05/10 06:35:40;;;;;;;18.27;8.02;;;16.60;96.90;;;;;;5006698;28;20045;-76
2022/05/10 06:38:27;;;;;;;14.52;6.25;;;16.70;96.90;;;;;;5006137;28;20058;-75
2022/05/10 06:41:04;;;;;;;9.75;6.32;;;16.80;96.50;;;;;;5015626;28;20056;-75
2022/05/10 06:43:35;;;;;;;12.23;5.97;;;16.90;96.30;;;;;;5029120;28;20042;-74
2022/05/10 06:46:07;;;;;;;11.48;6.00;;;17.00;96.00;;;;;;5031301;28;20422;-74
2022/05/10 06:48:32;;;;;;;19.38;6.32;;;17.10;95.90;;;;;;5007531;28;20057;-74
2022/05/10 06:50:58;;;;;;;18.73;6.03;;;17.30;95.50;;;;;;5029849;28;20048;-75
2022/05/10 06:53:25;;;;;;;10.50;5.72;;;17.40;95.30;;;;;;5030527;28;20045;-75
2022/05/10 06:55:51;;;;;;;12.55;5.90;;;17.50;95.00;;;;;;5025140;28;20047;-75
2022/05/10 06:58:17;;;;;;;14.85;5.93;;;17.60;94.90;;;;;;5011952;28;20046;-75
2022/05/10 07:00:42;;;;;;;20.60;5.65;;;17.70;94.70;;;;;;5027569;28;20056;-74
2022/05/10 07:03:17;;;;;;;16.95;5.30;;;17.90;94.50;;;;;;5031345;28;20057;-74
2022/05/10 07:05:45;;;;;;;11.82;5.25;;;18.00;94.20;;;;;;5021218;28;20077;-74
2022/05/10 07:08:14;;;;;;;12.93;4.93;;;18.10;94.10;;;;;;5017731;28;20029;-75
2022/05/10 07:10:43;;;;;;;16.23;5.70;;;18.20;93.70;;;;;;5028286;28;20096;-75
2022/05/10 07:13:13;;;;;;;13.25;5.00;;;18.30;93.60;;;;;;4996905;28;20054;-74
2022/05/10 07:15:38;;;;;;;10.85;5.28;;;18.30;93.50;;;;;;4994976;28;20046;-74
2022/05/10 07:18:04;;;;;;;13.40;4.45;;;18.50;93.20;;;;;;5030110;28;20095;-74
2022/05/10 07:20:30;;;;;;;12.25;5.18;;;18.50;93.10;;;;;;5015606;28;20137;-75
2022/05/10 07:22:55;;;;;;;9.93;4.57;;;18.60;92.90;;;;;;4993899;28;20132;-75
2022/05/10 07:25:25;;;;;;;7.38;4.43;;;18.60;92.60;;;;;;5048591;28;20114;-76
2022/05/10 07:27:51;;;;;;;15.70;4.82;;;18.80;92.40;;;;;;5030705;28;20043;-74
2022/05/10 07:30:17;;;;;;;13.80;5.55;;;18.80;92.00;;;;;;5050424;28;20041;-75
2022/05/10 07:32:42;;;;;;;11.73;5.00;;;18.90;92.00;;;;;;5044846;28;20047;-73
2022/05/10 07:35:11;;;;;;;12.00;4.80;;;19.10;91.90;;;;;;5026966;28;20087;-74
2022/05/10 07:37:39;;;;;;;11.00;5.18;;;19.10;91.40;;;;;;5023174;28;20037;-74
2022/05/10 07:40:07;;;;;;;13.18;4.75;;;19.20;91.30;;;;;;5038594;28;20073;-75
2022/05/10 07:42:34;;;;;;;13.20;4.93;;;19.30;90.80;;;;;;5044349;28;20049;-74
2022/05/10 07:44:59;;;;;;;12.10;4.80;;;19.50;90.70;;;;;;5039538;28;20076;-75
2022/05/10 07:47:25;;;;;;;22.83;5.22;;;19.60;90.50;;;;;;5027324;28;20479;-73
2022/05/10 07:49:51;;;;;;;11.82;4.72;;;19.70;90.20;;;;;;5033569;28;20484;-74
2022/05/10 07:52:16;;;;;;;12.52;5.00;;;19.70;89.60;;;;;;5049955;28;20433;-74
2022/05/10 07:54:42;;;;;;;13.82;5.60;;;19.90;89.50;;;;;;5050349;28;20075;-75
2022/05/10 07:57:08;;;;;;;8.00;4.40;;;20.00;88.50;;;;;;5021910;28;20120;-75
2022/05/10 07:59:36;;;;;;;12.77;4.90;;;20.00;88.10;;;;;;5047338;28;20052;-73
2022/05/10 08:02:02;;;;;;;8.30;4.25;;;20.00;88.10;;;;;;5047802;28;20037;-74
2022/05/10 08:04:28;;;;;;;12.68;4.47;;;20.10;87.70;;;;;;5034578;28;20475;-74
2022/05/10 08:06:53;;;;;;;14.52;4.75;;;20.20;86.90;;;;;;5032953;28;20077;-73
2022/05/10 08:09:19;;;;;;;14.10;4.45;;;20.20;86.60;;;;;;5032775;28;20049;-73
2022/05/10 08:11:46;;;;;;;10.57;4.13;;;20.40;86.30;;;;;;5050040;28;20060;-74
2022/05/10 08:14:13;;;;;;;10.45;4.15;;;20.40;85.50;;;;;;5049859;28;20147;-75
2022/05/10 08:16:38;;;;;;;15.02;3.92;;;20.40;85.50;;;;;;5030119;28;20055;-74
2022/05/10 08:19:04;;;;;;;9.63;4.45;;;20.50;85.90;;;;;;5045560;28;20049;-74
2022/05/10 08:21:30;;;;;;;12.32;3.85;;;20.60;85.00;;;;;;5031927;28;20110;-75
2022/05/10 08:23:56;;;;;;;10.45;3.83;;;20.60;84.00;;;;;;5049661;28;20057;-76
2022/05/10 08:26:23;;;;;;;10.07;3.35;;;20.70;83.60;;;;;;5049016;28;20072;-75
2022/05/10 08:28:48;;;;;;;14.18;3.40;;;20.80;83.00;;;;;;5048490;28;20117;-75
2022/05/10 08:31:14;;;;;;;13.50;4.95;;;20.80;82.30;;;;;;5032485;28;20251;-75
2022/05/10 08:33:42;;;;;;;10.80;4.03;;;20.80;81.20;;;;;;5030523;28;20944;-75
2022/05/10 08:36:10;;;;;;;12.02;3.40;;;20.90;80.50;;;;;;5044983;28;20091;-75
2022/05/10 08:38:36;;;;;;;11.98;3.90;;;20.90;80.90;;;;;;5046131;28;20068;-75
2022/05/10 08:41:08;;;;;;;7.50;3.13;;;20.80;80.10;;;;;;5022382;28;20045;-75
2022/05/10 08:43:36;;;;;;;12.82;3.35;;;21.00;80.10;;;;;;5028853;28;20084;-75
2022/05/10 08:46:03;;;;;;;9.93;3.67;;;21.00;80.00;;;;;;5031882;28;20044;-74
2022/05/10 08:48:31;;;;;;;17.48;3.45;;;21.10;79.60;;;;;;5038599;28;20064;-76
2022/05/10 08:50:57;;;;;;;10.55;3.33;;;21.10;78.80;;;;;;5048344;28;20072;-75
2022/05/10 08:53:24;;;;;;;15.30;3.45;;;21.20;79.00;;;;;;5048520;28;20068;-74
2022/05/10 08:56:03;;;;;;;7.60;3.35;;;21.30;78.70;;;;;;5049379;28;20144;-75
2022/05/10 08:58:50;;;;;;;11.02;3.20;;;21.30;77.80;;;;;;5047578;28;20258;-75
2022/05/10 09:01:26;;;;;;;15.77;3.05;;;21.40;77.40;;;;;;5029750;28;20103;-75
2022/05/10 09:04:15;;;;;;;10.43;3.47;;;21.40;77.10;;;;;;5028596;28;20128;-75
2022/05/10 09:06:55;;;;;;;8.35;3.42;;;21.40;77.30;;;;;;5028904;28;20202;-74
2022/05/10 09:09:39;;;;;;;13.13;3.47;;;21.40;77.20;;;;;;5042381;28;20432;-74
2022/05/10 09:12:12;;;;;;;13.77;3.38;;;21.50;76.80;;;;;;5020667;28;20408;-74
2022/05/10 09:14:48;;;;;;;9.88;4.03;;;21.50;76.20;;;;;;5025136;28;20041;-74
2022/05/10 09:17:17;;;;;;;6.60;3.33;;;21.60;76.00;;;;;;5049357;28;20040;-73
2022/05/10 09:19:43;;;;;;;7.10;2.92;;;21.60;76.50;;;;;;5049931;28;20041;-75
2022/05/10 09:22:30;;;;;;;6.18;3.30;;;21.70;76.10;;;;;;5048780;28;20037;-73
2022/05/10 09:24:58;;;;;;;11.43;3.13;;;21.70;75.00;;;;;;5036807;28;20388;-73
2022/05/10 09:27:34;;;;;;;11.40;3.53;;;21.70;74.20;;;;;;5032599;28;20033;-74
2022/05/10 09:30:00;;;;;;;13.95;3.67;;;21.80;74.20;;;;;;5038673;28;20474;-74
2022/05/10 09:35:21;;;;;;;23.30;3.65;;;21.90;74.20;;;;;;5049154;28;20133;-73
2022/05/10 09:38:07;;;;;;;11.60;2.75;;;21.90;74.80;;;;;;5029906;28;20068;-75
2022/05/10 09:40:34;;;;;;;14.77;2.80;;;22.00;73.80;;;;;;5031455;28;20679;-75
2022/05/10 09:43:25;;;;;;;11.45;3.15;;;22.10;74.00;;;;;;5029236;28;20357;-73
2022/05/10 09:46:09;;;;;;;6.53;3.08;;;22.20;73.40;;;;;;5029953;28;20049;-75
2022/05/10 09:48:36;;;;;;;9.30;2.67;;;22.20;73.70;;;;;;5047187;28;20053;-73
2022/05/10 09:51:27;;;;;;;15.60;3.55;;;22.30;73.20;;;;;;5012375;28;20393;-73
2022/05/10 09:53:55;;;;;;;10.88;3.65;;;22.40;73.30;;;;;;5037405;28;20427;-74
2022/05/10 09:56:30;;;;;;;12.70;3.85;;;22.50;72.20;;;;;;5030496;28;20060;-74
2022/05/10 09:59:02;;;;;;;18.60;3.75;;;22.60;71.60;;;;;;5047106;28;20045;-76
2022/05/10 10:01:49;;;;;;;14.10;4.00;;;22.70;71.10;;;;;;5030499;28;20037;-74
2022/05/10 10:04:20;;;;;;;9.60;3.20;;;22.70;70.60;;;;;;5030126;28;20073;-74
2022/05/10 10:07:03;;;;;;;52.63;5.47;;;22.80;70.50;;;;;;5027688;28;20037;-74
2022/05/10 10:09:31;;;;;;;8.55;3.83;;;22.80;70.20;;;;;;5038166;28;20461;-73
2022/05/10 10:11:57;;;;;;;11.48;3.42;;;22.70;70.40;;;;;;5045561;28;20694;-74
2022/05/10 10:14:52;;;;;;;10.68;3.50;;;22.60;70.10;;;;;;5030575;28;20049;-74
2022/05/10 10:17:23;;;;;;;8.00;3.80;;;22.70;70.10;;;;;;5020557;28;20140;-73
2022/05/10 10:19:58;;;;;;;19.20;4.63;;;22.50;70.70;;;;;;5047356;28;20505;-74
2022/05/10 10:22:33;;;;;;;8.50;3.30;;;22.70;70.30;;;;;;5047678;28;20131;-74
2022/05/10 10:25:24;;;;;;;8.82;3.90;;;22.60;70.40;;;;;;5046489;28;20519;-75
2022/05/10 10:28:04;;;;;;;8.80;4.40;;;22.80;70.20;;;;;;5026532;28;20049;-74
2022/05/10 10:30:38;;;;;;;8.13;3.95;;;22.80;70.00;;;;;;5027467;28;20052;-75
2022/05/10 10:33:12;;;;;;;6.72;3.50;;;22.90;69.50;;;;;;5051313;28;20072;-76
2022/05/10 10:35:52;;;;;;;11.80;4.03;;;23.00;69.40;;;;;;5026137;28;20063;-75
2022/05/10 10:38:43;;;;;;;9.67;4.47;;;23.00;69.60;;;;;;5032051;28;20374;-77
2022/05/10 10:41:13;;;;;;;10.00;4.78;;;23.10;69.60;;;;;;5028794;28;20096;-73
2022/05/10 10:44:04;;;;;;;9.02;4.55;;;23.10;69.10;;;;;;5041407;28;20063;-73
2022/05/10 10:46:55;;;;;;;10.50;3.90;;;23.10;69.00;;;;;;4987156;28;20442;-76
2022/05/10 10:49:27;;;;;;;17.87;5.17;;;23.10;69.30;;;;;;5031483;28;20113;-76
2022/05/10 10:51:53;;;;;;;14.77;4.40;;;23.10;69.30;;;;;;5048251;28;20410;-73
2022/05/10 10:54:25;;;;;;;9.82;5.10;;;23.20;68.90;;;;;;5029826;28;20144;-73
2022/05/10 10:57:21;;;;;;;11.70;4.70;;;23.10;68.90;;;;;;5030130;28;20057;-74
2022/05/10 10:59:58;;;;;;;11.38;4.65;;;23.20;69.20;;;;;;5030538;28;20472;-73
2022/05/10 11:03:01;;;;;;;17.13;4.90;;;23.00;69.20;;;;;;5029936;28;20049;-73
2022/05/10 11:05:30;;;;;;;10.10;5.63;;;23.10;69.10;;;;;;5048279;28;20389;-73
2022/05/10 11:08:35;;;;;;;14.60;5.68;;;23.10;68.80;;;;;;5047752;28;20447;-74
2022/05/10 11:11:16;;;;;;;17.38;4.93;;;23.00;69.00;;;;;;5026007;28;20060;-73
2022/05/10 11:14:22;;;;;;;11.07;5.07;;;22.90;69.50;;;;;;5027383;28;20049;-76
2022/05/10 11:17:19;;;;;;;13.13;5.05;;;22.90;69.70;;;;;;5033607;28;20037;-76
2022/05/10 11:20:06;;;;;;;15.77;5.45;;;22.80;69.90;;;;;;5032725;28;20064;-75
2022/05/10 11:22:49;;;;;;;8.77;4.22;;;22.70;70.20;;;;;;5021585;28;20045;-75
2022/05/10 11:25:26;;;;;;;9.55;3.60;;;22.70;70.60;;;;;;5033877;28;20567;-74
2022/05/10 11:28:07;;;;;;;11.18;3.47;;;22.70;70.30;;;;;;5048737;28;20042;-74
2022/05/10 11:30:53;;;;;;;6.72;3.10;;;22.70;69.20;;;;;;5031283;28;20049;-74
2022/05/10 11:33:47;;;;;;;10.40;2.53;;;22.80;68.60;;;;;;5040496;28;20053;-75
2022/05/10 11:36:34;;;;;;;12.30;2.90;;;22.80;68.20;;;;;;5013296;28;20055;-75
2022/05/10 11:39:35;;;;;;;15.65;3.88;;;22.80;66.90;;;;;;5044725;28;20052;-75
2022/05/10 11:42:18;;;;;;;6.97;2.60;;;22.80;67.10;;;;;;5012324;28;20053;-76
2022/05/10 11:45:14;;;;;;;9.25;2.70;;;22.80;66.90;;;;;;5051676;28;20378;-75
2022/05/10 11:48:16;;;;;;;8.95;3.10;;;22.90;67.30;;;;;;5033076;28;20045;-75
2022/05/10 11:51:38;;;;;;;11.40;2.72;;;23.00;66.70;;;;;;5013205;28;20143;-75
2022/05/10 11:54:22;;;;;;;7.35;2.95;;;23.00;66.90;;;;;;5029930;28;20421;-75
2022/05/10 11:56:50;;;;;;;17.88;3.92;;;23.00;66.60;;;;;;5048894;28;20033;-75
2022/05/10 11:59:28;;;;;;;9.27;3.67;;;22.80;66.60;;;;;;5048358;28;20107;-76
2022/05/10 12:01:56;;;;;;;16.35;4.10;;;23.00;66.70;;;;;;5049374;28;20125;-74
2022/05/10 12:04:39;;;;;;;11.75;5.05;;;22.90;66.80;;;;;;5026750;28;20049;-75
2022/05/10 12:07:20;;;;;;;15.30;4.22;;;23.00;67.00;;;;;;5050915;28;20052;-76
2022/05/10 12:09:52;;;;;;;;;;;23.20;67.20;;;;;;5033367;28;20049;-75
2022/05/10 12:12:32;;;;;;;9.27;4.47;;;23.20;67.90;;;;;;5046044;28;19925;-77
2022/05/10 12:21:19;;;;;;;23.60;6.25;;;23.40;66.80;;;;;;5031281;28;20425;-76
2022/05/10 12:24:02;;;;;;;13.25;5.75;;;23.50;66.70;;;;;;5050102;28;20064;-76
2022/05/10 12:26:43;;;;;;;14.20;5.68;;;23.40;67.00;;;;;;5050175;28;20136;-77
2022/05/10 12:29:31;;;;;;;12.52;5.40;;;23.40;66.50;;;;;;5047638;28;20048;-77
2022/05/10 12:31:58;;;;;;;16.58;6.43;;;23.50;67.80;;;;;;5031575;28;20136;-78
2022/05/10 12:34:52;;;;;;;13.48;6.07;;;23.40;67.70;;;;;;5012366;28;20128;-78
2022/05/10 12:37:27;;;;;;;11.80;5.68;;;23.50;68.00;;;;;;5037216;28;20378;-78
2022/05/10 12:39:53;;;;;;;13.35;5.38;;;23.50;68.20;;;;;;5050255;28;20353;-77
2022/05/10 12:42:31;;;;;;;15.93;4.97;;;23.50;68.10;;;;;;5029157;28;20092;-74
2022/05/10 12:45:23;;;;;;;11.15;4.38;;;23.40;67.70;;;;;;5050745;28;20159;-74
2022/05/10 12:48:20;;;;;;;11.63;4.43;;;23.40;67.70;;;;;;5031652;28;20457;-74
2022/05/10 12:51:01;;;;;;;15.50;4.53;;;23.30;67.20;;;;;;5028211;28;20048;-73
2022/05/10 12:53:48;;;;;;;16.38;4.63;;;23.20;67.20;;;;;;5019999;28;20087;-74
2022/05/10 12:56:24;;;;;;;16.80;4.13;;;23.10;67.50;;;;;;5049769;28;20041;-74
2022/05/10 12:59:16;;;;;;;17.27;3.92;;;23.00;67.50;;;;;;5048395;28;20350;-76
2022/05/10 13:01:42;;;;;;;15.93;2.90;;;22.90;67.10;;;;;;5049392;28;20088;-74
2022/05/10 13:04:17;;;;;;;9.25;2.47;;;22.80;66.80;;;;;;5049773;28;20334;-76
2022/05/10 13:07:12;;;;;;;10.20;2.63;;;22.80;66.00;;;;;;5031368;28;20107;-74
2022/05/10 13:09:43;;;;;;;17.13;3.05;;;22.70;65.40;;;;;;5042899;28;20452;-79
2022/05/10 13:12:08;;;;;;;8.50;2.50;;;22.70;65.10;;;;;;5030260;28;20045;-76
2022/05/10 13:14:56;;;;;;;12.50;2.83;;;22.80;64.60;;;;;;5047476;28;20106;-78
2022/05/10 13:17:41;;;;;;;8.32;2.10;;;22.60;64.20;;;;;;5026760;28;20136;-79
2022/05/10 13:20:12;;;;;;;16.23;2.23;;;22.60;63.40;;;;;;5050436;28;20111;-80
2022/05/10 13:22:46;;;;;;;9.13;2.13;;;22.50;62.80;;;;;;5049220;28;20349;-78
2022/05/10 13:25:12;;;;;;;10.93;2.05;;;22.50;62.80;;;;;;5050294;28;20041;-77
2022/05/10 13:27:43;;;;;;;5.80;2.03;;;22.50;61.50;;;;;;5048277;28;20052;-78
2022/05/10 13:30:17;;;;;;;11.35;2.00;;;22.50;61.60;;;;;;5047796;28;20480;-78
2022/05/10 13:32:45;;;;;;;8.63;2.25;;;22.30;60.70;;;;;;5026554;28;20051;-78
2022/05/10 13:35:24;;;;;;;9.85;1.75;;;22.30;60.40;;;;;;5048564;28;20175;-78
2022/05/10 13:38:14;;;;;;;12.77;2.05;;;22.20;60.10;;;;;;5047273;28;20044;-78
2022/05/10 13:41:06;;;;;;;11.10;1.40;;;22.20;60.00;;;;;;5040158;28;20055;-76
2022/05/10 13:43:51;;;;;;;10.07;1.60;;;22.10;60.00;;;;;;5026542;28;20049;-76
2022/05/10 13:46:26;;;;;;;7.70;1.67;;;22.10;60.00;;;;;;5049147;28;20495;-75
2022/05/10 13:49:00;;;;;;;6.30;1.60;;;22.10;59.90;;;;;;5023787;28;20045;-76
2022/05/10 13:51:31;;;;;;;5.05;1.45;;;22.10;60.10;;;;;;5030839;28;20045;-78
2022/05/10 13:54:01;;;;;;;6.50;1.40;;;22.10;59.20;;;;;;5048152;28;20041;-77
2022/05/10 13:56:31;;;;;;;5.95;1.30;;;22.10;57.70;;;;;;5030572;28;20104;-76
2022/05/10 13:58:57;;;;;;;5.15;0.93;;;22.10;56.60;;;;;;5029025;28;20526;-78
2022/05/10 14:01:49;;;;;;;10.48;1.00;;;22.00;56.30;;;;;;5045286;28;20117;-77
2022/05/10 14:04:20;;;;;;;2.15;0.80;;;22.00;56.60;;;;;;5046600;28;20103;-78
2022/05/10 14:06:58;;;;;;;12.95;1.52;;;21.90;55.50;;;;;;5048836;28;20040;-76
2022/05/10 14:09:28;;;;;;;8.68;1.27;;;21.90;56.10;;;;;;5045885;28;20037;-77
2022/05/10 14:11:57;;;;;;;8.13;1.30;;;21.80;55.70;;;;;;5046865;28;20049;-77
2022/05/10 14:14:29;;;;;;;4.43;0.82;;;21.80;55.10;;;;;;5028411;28;20056;-76
2022/05/10 14:16:59;;;;;;;6.20;1.13;;;21.60;54.70;;;;;;5032090;28;20077;-76
2022/05/10 14:19:54;;;;;;;2.25;0.95;;;21.50;54.10;;;;;;5046750;28;20037;-76
2022/05/10 14:22:23;;;;;;;5.68;1.40;;;21.30;54.40;;;;;;5027736;28;20053;-74
2022/05/10 14:24:49;;;;;;;5.78;0.80;;;21.20;54.80;;;;;;5043425;28;20053;-75
2022/05/10 14:27:21;;;;;;;3.58;1.02;;;21.10;54.30;;;;;;5032435;28;20120;-76
2022/05/10 14:29:54;;;;;;;5.07;1.08;;;21.00;55.00;;;;;;5029990;28;20049;-76
2022/05/10 14:32:19;;;;;;;7.60;0.90;;;20.90;55.30;;;;;;5044951;28;20041;-77
2022/05/10 14:35:13;;;;;;;6.47;1.42;;;20.80;55.90;;;;;;5035845;28;20037;-75
2022/05/10 14:37:48;;;;;;;7.03;1.23;;;20.70;56.20;;;;;;5030415;28;20064;-77
2022/05/10 14:40:37;;;;;;;3.63;1.25;;;20.70;56.90;;;;;;5043140;28;20032;-75
2022/05/10 14:43:05;;;;;;;8.73;1.65;;;20.60;56.80;;;;;;5026235;28;20045;-75
2022/05/10 14:45:34;;;;;;;4.63;1.08;;;20.40;56.90;;;;;;5023983;28;20520;-75
2022/05/10 14:48:00;;;;;;;3.95;1.23;;;20.40;57.10;;;;;;5041545;28;20553;-76
2022/05/10 14:50:42;;;;;;;3.45;0.90;;;20.20;56.90;;;;;;5011183;28;20434;-75
2022/05/10 14:53:27;;;;;;;4.53;1.10;;;20.10;57.70;;;;;;5039573;28;20045;-74
2022/05/10 14:56:13;;;;;;;7.22;2.00;;;20.10;57.70;;;;;;5034733;28;20429;-74
2022/05/10 14:58:42;;;;;;;5.53;1.60;;;20.00;57.70;;;;;;5036786;28;20037;-77
2022/05/10 15:01:34;;;;;;;4.35;1.88;;;19.90;58.00;;;;;;5027276;28;20076;-74
2022/05/10 15:04:02;;;;;;;6.57;1.45;;;19.80;58.50;;;;;;5021697;28;20494;-75
2022/05/10 15:06:29;;;;;;;5.45;1.00;;;19.80;58.60;;;;;;5028971;28;20052;-75
2022/05/10 15:08:55;;;;;;;8.75;1.45;;;19.70;58.80;;;;;;5019759;28;20080;-76
2022/05/10 15:11:20;;;;;;;2.85;0.90;;;19.70;59.50;;;;;;5056048;28;20388;-75
2022/05/10 15:13:46;;;;;;;2.72;1.50;;;19.60;59.90;;;;;;5048639;28;20049;-74
2022/05/10 15:16:12;;;;;;;5.90;2.05;;;19.60;60.40;;;;;;5038380;28;20090;-75
2022/05/10 15:21:27;;;;;;;6.95;1.52;;;19.40;61.20;;;;;;5014333;28;20084;-76
2022/05/10 15:23:53;;;;;;;3.92;1.65;;;19.20;61.60;;;;;;5041911;28;20067;-77
2022/05/10 15:26:33;;;;;;;7.45;1.60;;;19.30;62.20;;;;;;5050134;28;20040;-77
2022/05/10 15:29:00;;;;;;;7.50;1.20;;;19.20;62.90;;;;;;5024098;28;20480;-75
2022/05/10 15:31:26;;;;;;;4.45;1.90;;;19.20;63.40;;;;;;5035383;28;20041;-82
2022/05/10 15:33:53;;;;;;;5.28;1.55;;;19.30;63.60;;;;;;5046018;28;20041;-82
2022/05/10 15:36:19;;;;;;;7.85;1.42;;;19.20;63.70;;;;;;5043425;28;20140;-81
2022/05/10 15:38:45;;;;;;;4.60;1.50;;;19.20;64.10;;;;;;5021377;28;20042;-86
2022/05/10 15:41:11;;;;;;;5.15;1.70;;;19.10;64.20;;;;;;5041287;28;20068;-82